sensor_id;sensor_type;location;lat;lon;timestamp;temperature;humidity
67131;HTU21D;54051;53.464;49.532;2023-03-01T00:01:11;-2.77;82.04
67131;HTU21D;54051;53.464;49.532;2023-03-01T00:03:37;-2.74;81.74
67131;HTU21D;54051;53.464;49.532;2023-03-01T00:06:03;-2.66;81.63
67131;HTU21D;54051;53.464;49.532;2023-03-01T00:08:30;-2.69;81.68
67131;HTU21D;54051;53.464;49.532;2023-03-01T00:13:49;-2.78;82.01
67131;HTU21D;54051;53.464;49.532;2023-03-01T00:16:17;-2.80;82.29
67131;HTU21D;54051;53.464;49.532;2023-03-01T00:18:43;-2.84;82.78
67131;HTU21D;54051;53.464;49.532;2023-03-01T00:21:09;-2.91;83.13
67131;HTU21D;54051;53.464;49.532;2023-03-01T00:23:36;-2.92;83.73
67131;HTU21D;54051;53.464;49.532;2023-03-01T00:26:04;-2.91;84.05
67131;HTU21D;54051;53.464;49.532;2023-03-01T00:28:32;-2.90;84.26
67131;HTU21D;54051;53.464;49.532;2023-03-01T00:31:04;-2.91;84.37
67131;HTU21D;54051;53.464;49.532;2023-03-01T00:33:31;-2.87;84.56
67131;HTU21D;54051;53.464;49.532;2023-03-01T00:35:58;-2.82;84.45
67131;HTU21D;54051;53.464;49.532;2023-03-01T00:38:24;-2.82;84.42
67131;HTU21D;54051;53.464;49.532;2023-03-01T00:40:50;-2.79;84.47
67131;HTU21D;54051;53.464;49.532;2023-03-01T00:43:16;-2.81;84.50
67131;HTU21D;54051;53.464;49.532;2023-03-01T00:45:42;-2.74;84.71
67131;HTU21D;54051;53.464;49.532;2023-03-01T00:48:08;-2.62;84.31
67131;HTU21D;54051;53.464;49.532;2023-03-01T00:50:34;-2.56;83.90
67131;HTU21D;54051;53.464;49.532;2023-03-01T00:53:00;-2.58;84.00
67131;HTU21D;54051;53.464;49.532;2023-03-01T00:55:26;-2.61;83.43
67131;HTU21D;54051;53.464;49.532;2023-03-01T00:57:52;-2.54;84.15
67131;HTU21D;54051;53.464;49.532;2023-03-01T01:00:19;-2.57;83.78
67131;HTU21D;54051;53.464;49.532;2023-03-01T01:02:45;-2.54;84.13
67131;HTU21D;54051;53.464;49.532;2023-03-01T01:05:12;-2.50;84.36
67131;HTU21D;54051;53.464;49.532;2023-03-01T01:07:38;-2.46;84.11
67131;HTU21D;54051;53.464;49.532;2023-03-01T01:10:04;-2.48;83.85
67131;HTU21D;54051;53.464;49.532;2023-03-01T01:12:30;-2.47;83.91
67131;HTU21D;54051;53.464;49.532;2023-03-01T01:14:56;-2.42;83.74
67131;HTU21D;54051;53.464;49.532;2023-03-01T01:17:22;-2.38;83.00
67131;HTU21D;54051;53.464;49.532;2023-03-01T01:19:48;-2.33;83.23
67131;HTU21D;54051;53.464;49.532;2023-03-01T01:22:14;-2.36;82.91
67131;HTU21D;54051;53.464;49.532;2023-03-01T01:24:40;-2.33;82.98
67131;HTU21D;54051;53.464;49.532;2023-03-01T01:27:05;-2.31;82.73
67131;HTU21D;54051;53.464;49.532;2023-03-01T01:29:32;-2.30;82.68
67131;HTU21D;54051;53.464;49.532;2023-03-01T01:31:58;-2.38;82.81
67131;HTU21D;54051;53.464;49.532;2023-03-01T01:34:24;-2.41;82.97
67131;HTU21D;54051;53.464;49.532;2023-03-01T01:36:51;-2.36;82.87
67131;HTU21D;54051;53.464;49.532;2023-03-01T01:39:19;-2.29;83.41
67131;HTU21D;54051;53.464;49.532;2023-03-01T01:41:45;-2.33;82.74
67131;HTU21D;54051;53.464;49.532;2023-03-01T01:44:16;-2.31;82.94
67131;HTU21D;54051;53.464;49.532;2023-03-01T01:46:44;-2.29;82.76
67131;HTU21D;54051;53.464;49.532;2023-03-01T01:51:40;-2.26;82.82
67131;HTU21D;54051;53.464;49.532;2023-03-01T01:54:29;-2.22;82.85
67131;HTU21D;54051;53.464;49.532;2023-03-01T01:56:58;-2.21;82.69
67131;HTU21D;54051;53.464;49.532;2023-03-01T01:59:26;-2.22;82.80
67131;HTU21D;54051;53.464;49.532;2023-03-01T02:01:53;-2.21;82.81
67131;HTU21D;54051;53.464;49.532;2023-03-01T02:04:19;-2.15;82.07
67131;HTU21D;54051;53.464;49.532;2023-03-01T02:06:48;-2.24;82.07
67131;HTU21D;54051;53.464;49.532;2023-03-01T02:09:17;-2.27;82.50
67131;HTU21D;54051;53.464;49.532;2023-03-01T02:11:44;-2.23;82.36
67131;HTU21D;54051;53.464;49.532;2023-03-01T02:14:10;-2.22;81.88
67131;HTU21D;54051;53.464;49.532;2023-03-01T02:16:36;-2.14;82.10
67131;HTU21D;54051;53.464;49.532;2023-03-01T02:19:03;-2.09;81.46
67131;HTU21D;54051;53.464;49.532;2023-03-01T02:26:51;-2.10;81.32
67131;HTU21D;54051;53.464;49.532;2023-03-01T02:29:21;-2.19;81.72
67131;HTU21D;54051;53.464;49.532;2023-03-01T02:31:47;-2.21;81.94
67131;HTU21D;54051;53.464;49.532;2023-03-01T02:34:23;-2.19;82.01
67131;HTU21D;54051;53.464;49.532;2023-03-01T02:36:57;-2.14;82.19
67131;HTU21D;54051;53.464;49.532;2023-03-01T02:39:26;-2.17;81.72
67131;HTU21D;54051;53.464;49.532;2023-03-01T02:41:53;-2.20;81.94
67131;HTU21D;54051;53.464;49.532;2023-03-01T02:44:20;-2.19;82.13
67131;HTU21D;54051;53.464;49.532;2023-03-01T02:46:47;-2.20;82.02
67131;HTU21D;54051;53.464;49.532;2023-03-01T02:49:21;-2.18;81.95
67131;HTU21D;54051;53.464;49.532;2023-03-01T02:54:24;-2.08;82.51
67131;HTU21D;54051;53.464;49.532;2023-03-01T02:56:51;-2.06;82.20
67131;HTU21D;54051;53.464;49.532;2023-03-01T02:59:18;-2.04;81.83
67131;HTU21D;54051;53.464;49.532;2023-03-01T03:01:45;-2.08;82.10
67131;HTU21D;54051;53.464;49.532;2023-03-01T03:04:16;-2.06;82.40
67131;HTU21D;54051;53.464;49.532;2023-03-01T03:06:47;-2.07;82.71
67131;HTU21D;54051;53.464;49.532;2023-03-01T03:09:13;-2.12;82.73
67131;HTU21D;54051;53.464;49.532;2023-03-01T03:11:40;-2.17;83.13
67131;HTU21D;54051;53.464;49.532;2023-03-01T03:14:09;-2.19;83.84
67131;HTU21D;54051;53.464;49.532;2023-03-01T03:16:45;-2.16;83.95
67131;HTU21D;54051;53.464;49.532;2023-03-01T03:19:11;-2.21;84.19
67131;HTU21D;54051;53.464;49.532;2023-03-01T03:21:37;-2.21;84.92
67131;HTU21D;54051;53.464;49.532;2023-03-01T03:24:03;-2.18;84.92
67131;HTU21D;54051;53.464;49.532;2023-03-01T03:26:29;-2.10;85.19
67131;HTU21D;54051;53.464;49.532;2023-03-01T03:28:55;-2.13;84.90
67131;HTU21D;54051;53.464;49.532;2023-03-01T03:31:21;-2.09;84.68
67131;HTU21D;54051;53.464;49.532;2023-03-01T03:33:47;-2.10;84.48
67131;HTU21D;54051;53.464;49.532;2023-03-01T03:36:17;-2.10;84.29
67131;HTU21D;54051;53.464;49.532;2023-03-01T03:38:43;-2.13;84.21
67131;HTU21D;54051;53.464;49.532;2023-03-01T03:41:10;-2.09;84.10
67131;HTU21D;54051;53.464;49.532;2023-03-01T03:43:36;-2.09;84.00
67131;HTU21D;54051;53.464;49.532;2023-03-01T03:46:03;-2.08;84.00
67131;HTU21D;54051;53.464;49.532;2023-03-01T03:48:35;-2.05;84.13
67131;HTU21D;54051;53.464;49.532;2023-03-01T03:51:01;-1.95;83.42
67131;HTU21D;54051;53.464;49.532;2023-03-01T03:53:31;-1.99;83.11
67131;HTU21D;54051;53.464;49.532;2023-03-01T03:55:57;-1.98;83.15
67131;HTU21D;54051;53.464;49.532;2023-03-01T03:58:23;-1.99;83.46
67131;HTU21D;54051;53.464;49.532;2023-03-01T04:00:52;-1.94;83.45
67131;HTU21D;54051;53.464;49.532;2023-03-01T04:03:18;-1.95;83.65
67131;HTU21D;54051;53.464;49.532;2023-03-01T04:05:45;-1.90;83.80
67131;HTU21D;54051;53.464;49.532;2023-03-01T04:08:11;-1.91;83.20
67131;HTU21D;54051;53.464;49.532;2023-03-01T04:10:38;-1.90;83.13
67131;HTU21D;54051;53.464;49.532;2023-03-01T04:13:05;-1.87;83.32
67131;HTU21D;54051;53.464;49.532;2023-03-01T04:15:31;-1.78;82.67
67131;HTU21D;54051;53.464;49.532;2023-03-01T04:17:57;-1.75;82.23
67131;HTU21D;54051;53.464;49.532;2023-03-01T04:20:25;-1.67;82.30
67131;HTU21D;54051;53.464;49.532;2023-03-01T04:22:53;-1.65;81.73
67131;HTU21D;54051;53.464;49.532;2023-03-01T04:25:22;-1.62;82.06
67131;HTU21D;54051;53.464;49.532;2023-03-01T04:27:48;-1.50;82.04
67131;HTU21D;54051;53.464;49.532;2023-03-01T04:30:14;-1.45;81.59
67131;HTU21D;54051;53.464;49.532;2023-03-01T04:32:40;-1.33;80.52
67131;HTU21D;54051;53.464;49.532;2023-03-01T04:35:06;-1.26;79.43
67131;HTU21D;54051;53.464;49.532;2023-03-01T04:37:32;-1.11;78.43
67131;HTU21D;54051;53.464;49.532;2023-03-01T04:39:58;-1.01;77.67
67131;HTU21D;54051;53.464;49.532;2023-03-01T04:42:24;-0.83;76.52
67131;HTU21D;54051;53.464;49.532;2023-03-01T04:44:50;-0.69;75.09
67131;HTU21D;54051;53.464;49.532;2023-03-01T04:47:16;-0.67;74.85
67131;HTU21D;54051;53.464;49.532;2023-03-01T04:49:42;-0.57;74.51
67131;HTU21D;54051;53.464;49.532;2023-03-01T04:52:08;-0.41;73.73
67131;HTU21D;54051;53.464;49.532;2023-03-01T04:54:35;-0.28;73.67
67131;HTU21D;54051;53.464;49.532;2023-03-01T04:57:01;0.01;72.00
67131;HTU21D;54051;53.464;49.532;2023-03-01T04:59:27;0.14;71.05
67131;HTU21D;54051;53.464;49.532;2023-03-01T05:01:54;0.30;70.52
67131;HTU21D;54051;53.464;49.532;2023-03-01T05:04:21;0.31;70.10
67131;HTU21D;54051;53.464;49.532;2023-03-01T05:06:47;0.14;70.78
67131;HTU21D;54051;53.464;49.532;2023-03-01T05:09:13;-0.16;71.77
67131;HTU21D;54051;53.464;49.532;2023-03-01T05:11:39;-0.53;72.90
67131;HTU21D;54051;53.464;49.532;2023-03-01T05:14:05;-0.73;73.90
67131;HTU21D;54051;53.464;49.532;2023-03-01T05:16:33;-0.84;74.67
67131;HTU21D;54051;53.464;49.532;2023-03-01T05:18:59;-0.87;74.85
67131;HTU21D;54051;53.464;49.532;2023-03-01T05:21:25;-0.84;74.47
67131;HTU21D;54051;53.464;49.532;2023-03-01T05:23:51;-0.80;74.61
67131;HTU21D;54051;53.464;49.532;2023-03-01T05:26:18;-0.71;74.38
67131;HTU21D;54051;53.464;49.532;2023-03-01T05:28:44;-0.68;74.62
67131;HTU21D;54051;53.464;49.532;2023-03-01T05:31:10;-0.60;73.86
67131;HTU21D;54051;53.464;49.532;2023-03-01T05:33:37;-0.52;73.78
67131;HTU21D;54051;53.464;49.532;2023-03-01T05:36:04;-0.51;73.32
67131;HTU21D;54051;53.464;49.532;2023-03-01T05:38:30;-0.55;73.57
67131;HTU21D;54051;53.464;49.532;2023-03-01T05:40:56;-0.55;73.79
67131;HTU21D;54051;53.464;49.532;2023-03-01T05:43:22;-0.60;73.57
67131;HTU21D;54051;53.464;49.532;2023-03-01T05:45:48;-0.57;74.20
67131;HTU21D;54051;53.464;49.532;2023-03-01T05:48:14;-0.49;73.20
67131;HTU21D;54051;53.464;49.532;2023-03-01T05:50:42;-0.27;72.81
67131;HTU21D;54051;53.464;49.532;2023-03-01T05:53:18;-0.00;71.96
67131;HTU21D;54051;53.464;49.532;2023-03-01T05:55:46;0.19;70.97
67131;HTU21D;54051;53.464;49.532;2023-03-01T05:58:14;0.24;70.93
67131;HTU21D;54051;53.464;49.532;2023-03-01T06:00:41;0.25;71.31
67131;HTU21D;54051;53.464;49.532;2023-03-01T06:03:09;0.37;70.04
67131;HTU21D;54051;53.464;49.532;2023-03-01T06:05:35;0.51;70.16
67131;HTU21D;54051;53.464;49.532;2023-03-01T06:08:01;0.65;69.94
67131;HTU21D;54051;53.464;49.532;2023-03-01T06:10:28;0.66;69.64
67131;HTU21D;54051;53.464;49.532;2023-03-01T06:12:54;0.76;69.17
67131;HTU21D;54051;53.464;49.532;2023-03-01T06:15:20;0.64;68.89
67131;HTU21D;54051;53.464;49.532;2023-03-01T06:17:46;0.45;69.68
67131;HTU21D;54051;53.464;49.532;2023-03-01T06:20:16;0.29;69.73
67131;HTU21D;54051;53.464;49.532;2023-03-01T06:22:43;0.29;71.35
67131;HTU21D;54051;53.464;49.532;2023-03-01T06:25:14;0.36;70.45
67131;HTU21D;54051;53.464;49.532;2023-03-01T06:27:40;0.54;71.40
67131;HTU21D;54051;53.464;49.532;2023-03-01T06:30:06;0.55;70.74
67131;HTU21D;54051;53.464;49.532;2023-03-01T06:32:33;0.40;71.21
67131;HTU21D;54051;53.464;49.532;2023-03-01T06:34:59;0.34;72.73
67131;HTU21D;54051;53.464;49.532;2023-03-01T06:37:25;0.35;72.87
67131;HTU21D;54051;53.464;49.532;2023-03-01T06:39:51;0.83;72.29
67131;HTU21D;54051;53.464;49.532;2023-03-01T06:42:17;1.42;69.15
67131;HTU21D;54051;53.464;49.532;2023-03-01T06:44:43;1.43;68.41
67131;HTU21D;54051;53.464;49.532;2023-03-01T06:47:09;1.08;70.05
67131;HTU21D;54051;53.464;49.532;2023-03-01T06:49:35;0.77;70.76
67131;HTU21D;54051;53.464;49.532;2023-03-01T06:52:01;0.59;71.47
67131;HTU21D;54051;53.464;49.532;2023-03-01T06:54:27;0.42;72.51
67131;HTU21D;54051;53.464;49.532;2023-03-01T06:56:52;0.31;73.20
67131;HTU21D;54051;53.464;49.532;2023-03-01T06:59:18;0.18;73.32
67131;HTU21D;54051;53.464;49.532;2023-03-01T07:01:44;0.05;74.25
67131;HTU21D;54051;53.464;49.532;2023-03-01T07:04:11;-0.06;74.51
67131;HTU21D;54051;53.464;49.532;2023-03-01T07:06:37;-0.40;70.47
67131;HTU21D;54051;53.464;49.532;2023-03-01T07:09:03;-0.47;70.85
67131;HTU21D;54051;53.464;49.532;2023-03-01T07:11:29;-0.15;68.94
67131;HTU21D;54051;53.464;49.532;2023-03-01T07:13:55;0.04;66.78
67131;HTU21D;54051;53.464;49.532;2023-03-01T07:16:21;0.28;67.04
67131;HTU21D;54051;53.464;49.532;2023-03-01T07:18:47;0.61;66.34
67131;HTU21D;54051;53.464;49.532;2023-03-01T07:21:13;0.71;63.36
67131;HTU21D;54051;53.464;49.532;2023-03-01T07:23:40;0.78;63.06
67131;HTU21D;54051;53.464;49.532;2023-03-01T07:26:06;0.99;59.71
67131;HTU21D;54051;53.464;49.532;2023-03-01T07:28:32;1.29;60.53
67131;HTU21D;54051;53.464;49.532;2023-03-01T07:31:02;1.99;59.16
67131;HTU21D;54051;53.464;49.532;2023-03-01T07:33:28;2.87;57.80
67131;HTU21D;54051;53.464;49.532;2023-03-01T07:36:00;3.46;55.42
67131;HTU21D;54051;53.464;49.532;2023-03-01T07:38:26;4.15;54.48
67131;HTU21D;54051;53.464;49.532;2023-03-01T07:40:53;4.91;51.95
67131;HTU21D;54051;53.464;49.532;2023-03-01T07:43:22;4.29;52.59
67131;HTU21D;54051;53.464;49.532;2023-03-01T07:45:48;3.73;54.12
67131;HTU21D;54051;53.464;49.532;2023-03-01T07:48:14;3.21;54.82
67131;HTU21D;54051;53.464;49.532;2023-03-01T07:50:40;2.66;59.19
67131;HTU21D;54051;53.464;49.532;2023-03-01T07:53:06;2.28;60.54
67131;HTU21D;54051;53.464;49.532;2023-03-01T07:55:32;2.08;61.12
67131;HTU21D;54051;53.464;49.532;2023-03-01T07:57:57;2.15;58.81
67131;HTU21D;54051;53.464;49.532;2023-03-01T08:00:23;2.26;57.03
67131;HTU21D;54051;53.464;49.532;2023-03-01T08:02:49;2.26;57.06
67131;HTU21D;54051;53.464;49.532;2023-03-01T08:05:15;2.54;54.72
67131;HTU21D;54051;53.464;49.532;2023-03-01T08:07:41;2.73;53.42
67131;HTU21D;54051;53.464;49.532;2023-03-01T08:10:07;2.54;53.60
67131;HTU21D;54051;53.464;49.532;2023-03-01T08:12:34;2.22;54.44
67131;HTU21D;54051;53.464;49.532;2023-03-01T08:14:59;2.16;55.68
67131;HTU21D;54051;53.464;49.532;2023-03-01T08:17:25;2.01;55.42
67131;HTU21D;54051;53.464;49.532;2023-03-01T08:19:51;1.95;55.21
67131;HTU21D;54051;53.464;49.532;2023-03-01T08:22:17;1.81;54.29
67131;HTU21D;54051;53.464;49.532;2023-03-01T08:24:43;1.76;52.73
67131;HTU21D;54051;53.464;49.532;2023-03-01T08:27:09;1.42;54.52
67131;HTU21D;54051;53.464;49.532;2023-03-01T08:29:36;1.34;53.69
67131;HTU21D;54051;53.464;49.532;2023-03-01T08:32:02;1.40;53.76
67131;HTU21D;54051;53.464;49.532;2023-03-01T08:34:27;1.41;54.78
67131;HTU21D;54051;53.464;49.532;2023-03-01T08:36:53;1.20;56.09
67131;HTU21D;54051;53.464;49.532;2023-03-01T08:39:19;1.09;55.56
67131;HTU21D;54051;53.464;49.532;2023-03-01T08:41:46;1.10;57.44
67131;HTU21D;54051;53.464;49.532;2023-03-01T08:44:12;1.07;57.49
67131;HTU21D;54051;53.464;49.532;2023-03-01T08:46:39;1.49;55.58
67131;HTU21D;54051;53.464;49.532;2023-03-01T08:49:10;1.67;55.29
67131;HTU21D;54051;53.464;49.532;2023-03-01T08:51:36;1.90;53.99
67131;HTU21D;54051;53.464;49.532;2023-03-01T08:54:03;1.86;54.57
67131;HTU21D;54051;53.464;49.532;2023-03-01T08:56:29;2.11;52.41
67131;HTU21D;54051;53.464;49.532;2023-03-01T08:58:55;2.95;50.19
67131;HTU21D;54051;53.464;49.532;2023-03-01T09:01:21;2.98;49.39
67131;HTU21D;54051;53.464;49.532;2023-03-01T09:03:47;2.32;51.94
67131;HTU21D;54051;53.464;49.532;2023-03-01T09:06:13;2.20;52.70
67131;HTU21D;54051;53.464;49.532;2023-03-01T09:08:40;2.30;52.85
67131;HTU21D;54051;53.464;49.532;2023-03-01T09:11:07;2.01;54.24
67131;HTU21D;54051;53.464;49.532;2023-03-01T09:13:34;1.62;54.61
67131;HTU21D;54051;53.464;49.532;2023-03-01T09:16:01;1.39;55.23
67131;HTU21D;54051;53.464;49.532;2023-03-01T09:18:28;1.47;55.52
67131;HTU21D;54051;53.464;49.532;2023-03-01T09:21:08;1.85;54.44
67131;HTU21D;54051;53.464;49.532;2023-03-01T09:23:34;2.27;53.51
67131;HTU21D;54051;53.464;49.532;2023-03-01T09:26:02;2.31;53.04
67131;HTU21D;54051;53.464;49.532;2023-03-01T09:28:28;2.12;53.64
67131;HTU21D;54051;53.464;49.532;2023-03-01T09:30:57;1.84;54.20
67131;HTU21D;54051;53.464;49.532;2023-03-01T09:33:23;1.70;54.68
67131;HTU21D;54051;53.464;49.532;2023-03-01T09:35:49;1.67;54.87
67131;HTU21D;54051;53.464;49.532;2023-03-01T09:38:15;1.57;54.10
67131;HTU21D;54051;53.464;49.532;2023-03-01T09:40:42;1.53;55.13
67131;HTU21D;54051;53.464;49.532;2023-03-01T09:43:14;1.67;54.82
67131;HTU21D;54051;53.464;49.532;2023-03-01T09:45:41;1.66;55.35
67131;HTU21D;54051;53.464;49.532;2023-03-01T09:48:15;1.36;56.32
67131;HTU21D;54051;53.464;49.532;2023-03-01T09:50:42;0.94;57.83
67131;HTU21D;54051;53.464;49.532;2023-03-01T09:53:10;0.83;55.40
67131;HTU21D;54051;53.464;49.532;2023-03-01T09:55:39;0.79;54.98
67131;HTU21D;54051;53.464;49.532;2023-03-01T10:01:06;0.39;55.28
67131;HTU21D;54051;53.464;49.532;2023-03-01T10:03:47;0.33;55.87
67131;HTU21D;54051;53.464;49.532;2023-03-01T10:06:15;0.19;54.40
67131;HTU21D;54051;53.464;49.532;2023-03-01T10:11:39;0.52;54.99
67131;HTU21D;54051;53.464;49.532;2023-03-01T10:22:07;1.23;51.87
67131;HTU21D;54051;53.464;49.532;2023-03-01T10:24:38;1.72;50.90
67131;HTU21D;54051;53.464;49.532;2023-03-01T10:27:09;1.96;48.86
67131;HTU21D;54051;53.464;49.532;2023-03-01T10:29:39;2.02;49.79
67131;HTU21D;54051;53.464;49.532;2023-03-01T10:32:05;2.03;51.09
67131;HTU21D;54051;53.464;49.532;2023-03-01T10:34:33;1.99;51.15
67131;HTU21D;54051;53.464;49.532;2023-03-01T10:37:01;2.37;51.58
67131;HTU21D;54051;53.464;49.532;2023-03-01T10:39:33;2.24;52.74
67131;HTU21D;54051;53.464;49.532;2023-03-01T10:42:00;1.96;51.81
67131;HTU21D;54051;53.464;49.532;2023-03-01T10:47:02;0.94;56.53
67131;HTU21D;54051;53.464;49.532;2023-03-01T10:49:28;0.73;57.32
67131;HTU21D;54051;53.464;49.532;2023-03-01T10:51:54;0.63;57.27
67131;HTU21D;54051;53.464;49.532;2023-03-01T10:54:30;0.54;55.63
67131;HTU21D;54051;53.464;49.532;2023-03-01T10:56:59;0.73;52.07
67131;HTU21D;54051;53.464;49.532;2023-03-01T11:02:03;0.35;50.84
67131;HTU21D;54051;53.464;49.532;2023-03-01T11:04:29;0.29;50.85
67131;HTU21D;54051;53.464;49.532;2023-03-01T11:06:57;0.14;51.81
67131;HTU21D;54051;53.464;49.532;2023-03-01T11:09:24;-0.13;52.68
67131;HTU21D;54051;53.464;49.532;2023-03-01T11:11:53;-0.13;53.67
67131;HTU21D;54051;53.464;49.532;2023-03-01T11:14:20;0.16;52.26
67131;HTU21D;54051;53.464;49.532;2023-03-01T11:16:48;0.14;52.30
67131;HTU21D;54051;53.464;49.532;2023-03-01T11:19:16;0.10;52.16
67131;HTU21D;54051;53.464;49.532;2023-03-01T11:24:13;0.23;51.89
67131;HTU21D;54051;53.464;49.532;2023-03-01T11:26:41;0.46;50.95
67131;HTU21D;54051;53.464;49.532;2023-03-01T11:31:54;1.18;51.33
67131;HTU21D;54051;53.464;49.532;2023-03-01T11:37:01;1.52;48.99
67131;HTU21D;54051;53.464;49.532;2023-03-01T11:42:28;1.68;48.65
67131;HTU21D;54051;53.464;49.532;2023-03-01T11:44:58;1.56;48.43
67131;HTU21D;54051;53.464;49.532;2023-03-01T11:52:44;0.96;50.00
67131;HTU21D;54051;53.464;49.532;2023-03-01T11:55:35;0.89;49.31
67131;HTU21D;54051;53.464;49.532;2023-03-01T12:00:48;0.87;49.19
67131;HTU21D;54051;53.464;49.532;2023-03-01T12:05:54;1.09;49.05
67131;HTU21D;54051;53.464;49.532;2023-03-01T12:08:54;1.14;47.92
67131;HTU21D;54051;53.464;49.532;2023-03-01T12:27:37;0.80;50.11
67131;HTU21D;54051;53.464;49.532;2023-03-01T12:37:56;-0.01;55.20
67131;HTU21D;54051;53.464;49.532;2023-03-01T12:45:31;0.17;52.33
67131;HTU21D;54051;53.464;49.532;2023-03-01T12:50:44;-0.35;59.88
67131;HTU21D;54051;53.464;49.532;2023-03-01T12:53:19;-0.28;61.84
67131;HTU21D;54051;53.464;49.532;2023-03-01T12:55:47;-0.39;59.73
67131;HTU21D;54051;53.464;49.532;2023-03-01T12:58:26;-0.59;61.47
67131;HTU21D;54051;53.464;49.532;2023-03-01T13:01:02;-0.46;60.83
67131;HTU21D;54051;53.464;49.532;2023-03-01T13:08:39;-0.37;58.47
67131;HTU21D;54051;53.464;49.532;2023-03-01T13:11:26;-0.49;58.06
67131;HTU21D;54051;53.464;49.532;2023-03-01T13:13:52;-0.57;56.62
67131;HTU21D;54051;53.464;49.532;2023-03-01T13:16:39;-0.55;56.26
67131;HTU21D;54051;53.464;49.532;2023-03-01T13:19:21;-0.54;55.08
67131;HTU21D;54051;53.464;49.532;2023-03-01T13:21:48;-0.53;54.01
67131;HTU21D;54051;53.464;49.532;2023-03-01T13:24:25;-0.58;54.01
67131;HTU21D;54051;53.464;49.532;2023-03-01T13:29:32;-0.99;54.31
67131;HTU21D;54051;53.464;49.532;2023-03-01T13:32:19;-1.19;54.54
67131;HTU21D;54051;53.464;49.532;2023-03-01T13:34:50;-1.27;53.56
67131;HTU21D;54051;53.464;49.532;2023-03-01T13:37:26;-1.41;53.60
67131;HTU21D;54051;53.464;49.532;2023-03-01T13:39:56;-1.48;53.33
67131;HTU21D;54051;53.464;49.532;2023-03-01T13:44:59;-1.49;52.96
67131;HTU21D;54051;53.464;49.532;2023-03-01T13:47:25;-1.48;53.23
67131;HTU21D;54051;53.464;49.532;2023-03-01T13:49:59;-1.56;53.01
67131;HTU21D;54051;53.464;49.532;2023-03-01T13:54:52;-1.55;53.08
67131;HTU21D;54051;53.464;49.532;2023-03-01T13:57:20;-1.58;53.72
67131;HTU21D;54051;53.464;49.532;2023-03-01T13:59:48;-1.60;53.49
67131;HTU21D;54051;53.464;49.532;2023-03-01T14:02:14;-1.69;52.63
67131;HTU21D;54051;53.464;49.532;2023-03-01T14:04:41;-1.73;54.04
67131;HTU21D;54051;53.464;49.532;2023-03-01T14:09:37;-1.91;53.40
67131;HTU21D;54051;53.464;49.532;2023-03-01T14:15:00;-2.15;52.59
67131;HTU21D;54051;53.464;49.532;2023-03-01T14:19:57;-2.27;54.35
67131;HTU21D;54051;53.464;49.532;2023-03-01T14:22:28;-2.33;54.35
67131;HTU21D;54051;53.464;49.532;2023-03-01T14:24:58;-2.30;54.62
67131;HTU21D;54051;53.464;49.532;2023-03-01T14:27:30;-2.24;54.59
67131;HTU21D;54051;53.464;49.532;2023-03-01T14:29:58;-2.19;53.78
67131;HTU21D;54051;53.464;49.532;2023-03-01T14:32:26;-2.15;54.89
67131;HTU21D;54051;53.464;49.532;2023-03-01T14:34:53;-2.06;55.17
67131;HTU21D;54051;53.464;49.532;2023-03-01T14:37:26;-2.00;55.52
67131;HTU21D;54051;53.464;49.532;2023-03-01T14:39:53;-1.94;54.87
67131;HTU21D;54051;53.464;49.532;2023-03-01T14:42:19;-1.95;55.43
67131;HTU21D;54051;53.464;49.532;2023-03-01T14:44:47;-1.98;55.62
67131;HTU21D;54051;53.464;49.532;2023-03-01T14:47:32;-2.01;55.56
67131;HTU21D;54051;53.464;49.532;2023-03-01T14:50:00;-2.20;56.00
67131;HTU21D;54051;53.464;49.532;2023-03-01T14:52:34;-2.37;56.68
67131;HTU21D;54051;53.464;49.532;2023-03-01T14:55:02;-2.60;57.29
67131;HTU21D;54051;53.464;49.532;2023-03-01T14:57:29;-2.68;57.26
67131;HTU21D;54051;53.464;49.532;2023-03-01T14:59:57;-2.78;57.20
67131;HTU21D;54051;53.464;49.532;2023-03-01T15:02:24;-2.74;57.61
67131;HTU21D;54051;53.464;49.532;2023-03-01T15:04:52;-2.69;56.99
67131;HTU21D;54051;53.464;49.532;2023-03-01T15:07:24;-2.58;56.78
67131;HTU21D;54051;53.464;49.532;2023-03-01T15:09:52;-2.58;56.93
67131;HTU21D;54051;53.464;49.532;2023-03-01T15:14:57;-2.50;56.93
67131;HTU21D;54051;53.464;49.532;2023-03-01T15:19:56;-2.53;56.99
67131;HTU21D;54051;53.464;49.532;2023-03-01T15:22:22;-2.49;57.80
67131;HTU21D;54051;53.464;49.532;2023-03-01T15:24:49;-2.53;56.39
67131;HTU21D;54051;53.464;49.532;2023-03-01T15:27:17;-2.56;57.24
67131;HTU21D;54051;53.464;49.532;2023-03-01T15:29:52;-2.56;57.38
67131;HTU21D;54051;53.464;49.532;2023-03-01T15:32:29;-2.60;57.21
67131;HTU21D;54051;53.464;49.532;2023-03-01T15:35:00;-2.73;57.70
67131;HTU21D;54051;53.464;49.532;2023-03-01T15:40:20;-2.78;59.77
67131;HTU21D;54051;53.464;49.532;2023-03-01T15:42:47;-2.73;60.14
67131;HTU21D;54051;53.464;49.532;2023-03-01T15:47:50;-2.80;61.17
67131;HTU21D;54051;53.464;49.532;2023-03-01T15:50:25;-2.84;60.56
67131;HTU21D;54051;53.464;49.532;2023-03-01T15:52:51;-2.87;60.80
67131;HTU21D;54051;53.464;49.532;2023-03-01T15:55:25;-2.83;61.01
67131;HTU21D;54051;53.464;49.532;2023-03-01T15:58:14;-2.73;60.75
67131;HTU21D;54051;53.464;49.532;2023-03-01T16:00:42;-2.67;61.29
67131;HTU21D;54051;53.464;49.532;2023-03-01T16:03:08;-2.64;62.49
67131;HTU21D;54051;53.464;49.532;2023-03-01T16:05:37;-2.63;62.02
67131;HTU21D;54051;53.464;49.532;2023-03-01T16:08:05;-2.65;62.57
67131;HTU21D;54051;53.464;49.532;2023-03-01T16:10:32;-2.65;63.31
67131;HTU21D;54051;53.464;49.532;2023-03-01T16:12:58;-2.65;62.68
67131;HTU21D;54051;53.464;49.532;2023-03-01T16:15:31;-2.61;64.36
67131;HTU21D;54051;53.464;49.532;2023-03-01T16:17:58;-2.56;63.38
67131;HTU21D;54051;53.464;49.532;2023-03-01T16:20:24;-2.59;64.08
67131;HTU21D;54051;53.464;49.532;2023-03-01T16:22:51;-2.60;64.12
67131;HTU21D;54051;53.464;49.532;2023-03-01T16:25:19;-2.59;63.87
67131;HTU21D;54051;53.464;49.532;2023-03-01T16:27:48;-2.66;63.98
67131;HTU21D;54051;53.464;49.532;2023-03-01T16:30:15;-2.80;64.10
67131;HTU21D;54051;53.464;49.532;2023-03-01T16:32:42;-2.81;64.85
67131;HTU21D;54051;53.464;49.532;2023-03-01T16:35:10;-2.80;65.83
67131;HTU21D;54051;53.464;49.532;2023-03-01T16:37:37;-2.80;64.65
67131;HTU21D;54051;53.464;49.532;2023-03-01T16:40:05;-2.77;64.68
67131;HTU21D;54051;53.464;49.532;2023-03-01T16:42:33;-2.78;64.93
67131;HTU21D;54051;53.464;49.532;2023-03-01T16:45:00;-2.80;65.60
67131;HTU21D;54051;53.464;49.532;2023-03-01T16:47:27;-2.84;65.66
67131;HTU21D;54051;53.464;49.532;2023-03-01T16:49:53;-2.93;65.94
67131;HTU21D;54051;53.464;49.532;2023-03-01T16:52:20;-2.95;65.96
67131;HTU21D;54051;53.464;49.532;2023-03-01T16:54:46;-3.09;66.10
67131;HTU21D;54051;53.464;49.532;2023-03-01T16:57:13;-3.09;66.63
67131;HTU21D;54051;53.464;49.532;2023-03-01T16:59:39;-3.11;66.38
67131;HTU21D;54051;53.464;49.532;2023-03-01T17:02:08;-3.16;66.07
67131;HTU21D;54051;53.464;49.532;2023-03-01T17:04:37;-3.18;65.55
67131;HTU21D;54051;53.464;49.532;2023-03-01T17:07:04;-3.12;65.42
67131;HTU21D;54051;53.464;49.532;2023-03-01T17:09:35;-3.11;65.75